SVR1819 URSS-LTAI
Flight info
| Callsign | SVR1819 |
|---|---|
| Flight time | 1h 55m |
| Altitude | 36000 |
| Route | TABAN1S TABAN N166 TUDEK UR114 TBN UW706 SIV UT54 HALIL/N0448F350 UW77 HISAR |
| Aircraft | A21N/M-SDE3FGHIRWY/LB1 |
Departure
| Time | 2026-05-07 14:18 |
|---|---|
| Airport | Sochi International Airport (URSS) |
Arrival
| Time | 2026-05-07 16:13 |
|---|---|
| Airport | Antalya International Airport (LTAI) |
| Time | Latitude | Longitude | Altitude | Speed | Heading |
|---|---|---|---|---|---|
| 2026-05-07 14:00 | 43.44900 | 39.94507 | 59 ft | 0 kts | 298° |
| 2026-05-07 14:10 | 43.44896 | 39.94519 | 59 ft | 2 kts | 298° |
| 2026-05-07 14:10 | 43.44889 | 39.94537 | 59 ft | 2 kts | 298° |
| 2026-05-07 14:11 | 43.44882 | 39.94555 | 59 ft | 2 kts | 298° |
| 2026-05-07 14:11 | 43.44875 | 39.94573 | 59 ft | 2 kts | 298° |
| 2026-05-07 14:11 | 43.44867 | 39.94591 | 58 ft | 2 kts | 313° |
| 2026-05-07 14:11 | 43.44855 | 39.94603 | 58 ft | 2 kts | 338° |
| 2026-05-07 14:12 | 43.44841 | 39.94608 | 58 ft | 2 kts | 2° |
| 2026-05-07 14:12 | 43.44826 | 39.94603 | 58 ft | 2 kts | 26° |
| 2026-05-07 14:12 | 43.44814 | 39.94591 | 57 ft | 2 kts | 50° |
| 2026-05-07 14:12 | 43.44808 | 39.94581 | 57 ft | 1 kts | 65° |
| 2026-05-07 14:13 | 43.44805 | 39.94572 | 57 ft | 1 kts | 66° |
| 2026-05-07 14:13 | 43.44803 | 39.94562 | 57 ft | 1 kts | 66° |
| 2026-05-07 14:13 | 43.44799 | 39.94553 | 57 ft | 1 kts | 66° |
| 2026-05-07 14:13 | 43.44797 | 39.94546 | 57 ft | 0 kts | 66° |
| 2026-05-07 14:14 | 43.44797 | 39.94545 | 57 ft | 0 kts | 66° |
| 2026-05-07 14:15 | 43.44797 | 39.94546 | 57 ft | 0 kts | 66° |
| 2026-05-07 14:15 | 43.44801 | 39.94558 | 57 ft | 2 kts | 66° |
| 2026-05-07 14:15 | 43.44814 | 39.94597 | 57 ft | 6 kts | 65° |
| 2026-05-07 14:16 | 43.44838 | 39.94669 | 58 ft | 10 kts | 65° |
| 2026-05-07 14:16 | 43.44841 | 39.94768 | 58 ft | 11 kts | 109° |
| 2026-05-07 14:16 | 43.44861 | 39.94891 | 58 ft | 15 kts | 66° |
| 2026-05-07 14:16 | 43.44908 | 39.95032 | 60 ft | 16 kts | 65° |
| 2026-05-07 14:17 | 43.44963 | 39.95186 | 61 ft | 18 kts | 63° |
| 2026-05-07 14:17 | 43.44978 | 39.95334 | 64 ft | 16 kts | 133° |
| 2026-05-07 14:17 | 43.44886 | 39.95329 | 64 ft | 14 kts | 238° |
| 2026-05-07 14:17 | 43.44802 | 39.95083 | 60 ft | 59 kts | 245° |
| 2026-05-07 14:18 | 43.44520 | 39.94265 | 52 ft | 127 kts | 246° |
| 2026-05-07 14:18 | 43.44072 | 39.92947 | 129 ft | 170 kts | 248° |
| 2026-05-07 14:18 | 43.43601 | 39.91453 | 765 ft | 170 kts | 249° |
| 2026-05-07 14:18 | 43.43237 | 39.89916 | 1416 ft | 173 kts | 259° |
| 2026-05-07 14:19 | 43.43033 | 39.88276 | 2016 ft | 178 kts | 262° |
| 2026-05-07 14:19 | 43.42781 | 39.86545 | 2419 ft | 193 kts | 259° |
| 2026-05-07 14:19 | 43.42482 | 39.84656 | 2822 ft | 210 kts | 259° |
| 2026-05-07 14:19 | 43.42152 | 39.82625 | 3209 ft | 229 kts | 259° |
| 2026-05-07 14:20 | 43.41783 | 39.80381 | 3582 ft | 250 kts | 259° |
| 2026-05-07 14:20 | 43.41392 | 39.78023 | 4315 ft | 255 kts | 258° |
| 2026-05-07 14:20 | 43.40999 | 39.75675 | 5090 ft | 258 kts | 258° |
| 2026-05-07 14:20 | 43.40598 | 39.73279 | 5830 ft | 262 kts | 258° |
| 2026-05-07 14:21 | 43.40178 | 39.70765 | 6384 ft | 274 kts | 258° |
| 2026-05-07 14:21 | 43.39747 | 39.68193 | 7092 ft | 280 kts | 258° |
| 2026-05-07 14:21 | 43.39243 | 39.65577 | 7871 ft | 284 kts | 248° |
| 2026-05-07 14:21 | 43.38068 | 39.63425 | 8600 ft | 288 kts | 217° |
| 2026-05-07 14:22 | 43.36283 | 39.62306 | 9355 ft | 288 kts | 189° |
| 2026-05-07 14:22 | 43.34288 | 39.62094 | 10062 ft | 291 kts | 181° |
| 2026-05-07 14:22 | 43.32217 | 39.62003 | 10574 ft | 303 kts | 181° |
| 2026-05-07 14:22 | 43.30055 | 39.61890 | 10921 ft | 320 kts | 182° |
| 2026-05-07 14:23 | 43.27758 | 39.61740 | 11253 ft | 338 kts | 182° |
| 2026-05-07 14:23 | 43.25352 | 39.61563 | 11649 ft | 351 kts | 182° |
| 2026-05-07 14:23 | 43.22908 | 39.61374 | 12287 ft | 356 kts | 183° |
| 2026-05-07 14:23 | 43.20437 | 39.61182 | 12977 ft | 359 kts | 183° |
| 2026-05-07 14:24 | 43.17926 | 39.60986 | 13622 ft | 363 kts | 183° |
| 2026-05-07 14:24 | 43.15380 | 39.60789 | 14240 ft | 367 kts | 183° |
| 2026-05-07 14:24 | 43.12839 | 39.60593 | 14894 ft | 370 kts | 183° |
| 2026-05-07 14:24 | 43.10248 | 39.60393 | 15537 ft | 374 kts | 183° |
| 2026-05-07 14:25 | 43.07666 | 39.60109 | 16124 ft | 377 kts | 186° |
| 2026-05-07 14:25 | 43.05065 | 39.59598 | 16739 ft | 381 kts | 189° |
| 2026-05-07 14:25 | 43.02416 | 39.59003 | 17326 ft | 384 kts | 189° |
| 2026-05-07 14:25 | 42.99788 | 39.58408 | 17879 ft | 388 kts | 189° |
| 2026-05-07 14:26 | 42.97112 | 39.57804 | 18439 ft | 392 kts | 189° |
| 2026-05-07 14:26 | 42.94395 | 39.57191 | 18985 ft | 395 kts | 189° |
| 2026-05-07 14:26 | 42.91681 | 39.56582 | 19508 ft | 399 kts | 189° |
| 2026-05-07 14:26 | 42.88933 | 39.55967 | 20045 ft | 402 kts | 189° |
| 2026-05-07 14:27 | 42.86169 | 39.55352 | 20564 ft | 405 kts | 189° |
| 2026-05-07 14:27 | 42.83372 | 39.54731 | 21079 ft | 408 kts | 189° |
| 2026-05-07 14:27 | 42.80559 | 39.54106 | 21582 ft | 411 kts | 189° |
| 2026-05-07 14:27 | 42.77769 | 39.53485 | 22064 ft | 413 kts | 188° |
| 2026-05-07 14:28 | 42.74923 | 39.52853 | 22535 ft | 416 kts | 188° |
| 2026-05-07 14:28 | 42.72058 | 39.52217 | 22997 ft | 419 kts | 188° |
| 2026-05-07 14:28 | 42.69139 | 39.51570 | 23430 ft | 423 kts | 188° |
| 2026-05-07 14:28 | 42.66250 | 39.50931 | 23851 ft | 426 kts | 188° |
| 2026-05-07 14:29 | 42.63320 | 39.50282 | 24277 ft | 429 kts | 188° |
| 2026-05-07 14:29 | 42.60358 | 39.49624 | 24690 ft | 431 kts | 188° |
| 2026-05-07 14:29 | 42.57395 | 39.48965 | 25080 ft | 434 kts | 188° |
| 2026-05-07 14:29 | 42.54401 | 39.48299 | 25469 ft | 437 kts | 188° |
| 2026-05-07 14:30 | 42.51381 | 39.47628 | 25838 ft | 440 kts | 189° |
| 2026-05-07 14:30 | 42.48357 | 39.46958 | 26188 ft | 442 kts | 188° |
| 2026-05-07 14:30 | 42.45327 | 39.46286 | 26526 ft | 445 kts | 188° |
| 2026-05-07 14:30 | 42.42250 | 39.45605 | 26850 ft | 448 kts | 188° |
| 2026-05-07 14:31 | 42.39166 | 39.44923 | 27178 ft | 450 kts | 188° |
| 2026-05-07 14:31 | 42.36091 | 39.44246 | 27495 ft | 452 kts | 188° |
| 2026-05-07 14:31 | 42.32990 | 39.43563 | 27807 ft | 454 kts | 188° |
| 2026-05-07 14:31 | 42.29855 | 39.42873 | 28108 ft | 456 kts | 188° |
| 2026-05-07 14:32 | 42.26708 | 39.42182 | 28410 ft | 459 kts | 189° |
| 2026-05-07 14:32 | 42.23547 | 39.41489 | 28708 ft | 460 kts | 188° |
| 2026-05-07 14:32 | 42.20395 | 39.41062 | 28966 ft | 462 kts | 181° |
| 2026-05-07 14:32 | 42.17170 | 39.41151 | 29230 ft | 462 kts | 174° |
| 2026-05-07 14:33 | 42.13976 | 39.41779 | 29546 ft | 461 kts | 167° |
| 2026-05-07 14:33 | 42.10870 | 39.42766 | 29927 ft | 460 kts | 165° |
| 2026-05-07 14:33 | 42.07764 | 39.43832 | 30315 ft | 459 kts | 164° |
| 2026-05-07 14:33 | 42.04688 | 39.44896 | 30686 ft | 458 kts | 164° |
| 2026-05-07 14:34 | 42.01636 | 39.45943 | 31012 ft | 457 kts | 165° |
| 2026-05-07 14:34 | 41.98568 | 39.46983 | 31298 ft | 456 kts | 165° |
| 2026-05-07 14:34 | 41.95515 | 39.48010 | 31550 ft | 455 kts | 165° |
| 2026-05-07 14:34 | 41.92437 | 39.49040 | 31745 ft | 455 kts | 165° |
| 2026-05-07 14:35 | 41.89371 | 39.50063 | 31935 ft | 456 kts | 165° |
| 2026-05-07 14:35 | 41.86279 | 39.51089 | 32118 ft | 456 kts | 165° |
| 2026-05-07 14:35 | 41.83204 | 39.52106 | 32302 ft | 456 kts | 165° |
| 2026-05-07 14:35 | 41.80143 | 39.53115 | 32474 ft | 456 kts | 165° |
| 2026-05-07 14:36 | 41.77060 | 39.54131 | 32653 ft | 456 kts | 165° |
| 2026-05-07 14:36 | 41.74000 | 39.55141 | 32808 ft | 456 kts | 165° |
| 2026-05-07 14:36 | 41.70895 | 39.56168 | 32972 ft | 456 kts | 166° |
| 2026-05-07 14:36 | 41.67827 | 39.57181 | 33139 ft | 456 kts | 166° |
| 2026-05-07 14:37 | 41.64746 | 39.58196 | 33293 ft | 456 kts | 166° |
| 2026-05-07 14:37 | 41.58581 | 39.60239 | 33626 ft | 455 kts | 166° |
| 2026-05-07 14:37 | 41.55535 | 39.61253 | 33797 ft | 455 kts | 166° |
| 2026-05-07 14:38 | 41.52483 | 39.62266 | 33993 ft | 454 kts | 166° |
| 2026-05-07 14:38 | 41.49417 | 39.63283 | 34186 ft | 454 kts | 166° |
| 2026-05-07 14:38 | 41.46342 | 39.64296 | 34366 ft | 453 kts | 166° |
| 2026-05-07 14:38 | 41.43248 | 39.65311 | 34531 ft | 453 kts | 166° |
| 2026-05-07 14:39 | 41.40218 | 39.66303 | 34674 ft | 454 kts | 166° |
| 2026-05-07 14:39 | 41.37155 | 39.67307 | 34804 ft | 455 kts | 167° |
| 2026-05-07 14:39 | 41.34082 | 39.68314 | 34934 ft | 455 kts | 167° |
| 2026-05-07 14:39 | 41.30992 | 39.69326 | 35078 ft | 456 kts | 167° |
| 2026-05-07 14:40 | 41.27900 | 39.70339 | 35203 ft | 456 kts | 167° |
| 2026-05-07 14:40 | 41.24817 | 39.71350 | 35326 ft | 456 kts | 167° |
| 2026-05-07 14:40 | 41.21711 | 39.72367 | 35456 ft | 456 kts | 167° |
| 2026-05-07 14:40 | 41.18621 | 39.73377 | 35579 ft | 456 kts | 167° |
| 2026-05-07 14:41 | 41.15573 | 39.74371 | 35693 ft | 457 kts | 167° |
| 2026-05-07 14:41 | 41.12450 | 39.75388 | 35800 ft | 457 kts | 167° |
| 2026-05-07 14:41 | 41.06156 | 39.76252 | 35962 ft | 455 kts | 187° |
| 2026-05-07 14:42 | 41.03074 | 39.75429 | 36067 ft | 452 kts | 199° |
| 2026-05-07 14:42 | 41.00207 | 39.73823 | 36151 ft | 450 kts | 211° |
| 2026-05-07 14:42 | 40.97640 | 39.71500 | 36215 ft | 449 kts | 222° |
| 2026-05-07 14:42 | 40.95459 | 39.68534 | 36212 ft | 447 kts | 234° |
| 2026-05-07 14:43 | 40.92341 | 39.61470 | 36216 ft | 445 kts | 244° |
| 2026-05-07 14:43 | 40.89522 | 39.54184 | 36220 ft | 446 kts | 244° |
| 2026-05-07 14:44 | 40.86660 | 39.46949 | 36216 ft | 446 kts | 244° |
| 2026-05-07 14:44 | 40.83783 | 39.39717 | 36220 ft | 446 kts | 244° |
| 2026-05-07 14:45 | 40.80903 | 39.32478 | 36212 ft | 446 kts | 244° |
| 2026-05-07 14:45 | 40.78023 | 39.25223 | 36218 ft | 446 kts | 244° |
| 2026-05-07 14:46 | 40.75147 | 39.18014 | 36218 ft | 446 kts | 244° |
| 2026-05-07 14:46 | 40.72234 | 39.10738 | 36222 ft | 447 kts | 244° |
| 2026-05-07 14:47 | 40.69329 | 39.03505 | 36230 ft | 447 kts | 244° |
| 2026-05-07 14:47 | 40.66422 | 38.96289 | 36224 ft | 447 kts | 244° |
| 2026-05-07 14:48 | 40.63500 | 38.89050 | 36217 ft | 446 kts | 244° |
| 2026-05-07 14:48 | 40.60585 | 38.81864 | 36220 ft | 447 kts | 244° |
| 2026-05-07 14:49 | 40.57650 | 38.74652 | 36230 ft | 447 kts | 244° |
| 2026-05-07 14:49 | 40.54707 | 38.67442 | 36216 ft | 447 kts | 244° |
| 2026-05-07 14:50 | 40.51751 | 38.60220 | 36222 ft | 446 kts | 244° |
| 2026-05-07 14:50 | 40.48744 | 38.53014 | 36218 ft | 447 kts | 243° |
| 2026-05-07 14:51 | 40.45684 | 38.45905 | 36216 ft | 447 kts | 243° |
| 2026-05-07 14:51 | 40.42636 | 38.38833 | 36209 ft | 447 kts | 243° |
| 2026-05-07 14:52 | 40.39584 | 38.31747 | 36219 ft | 447 kts | 243° |
| 2026-05-07 14:52 | 40.36565 | 38.24589 | 36238 ft | 447 kts | 244° |
| 2026-05-07 14:53 | 40.33701 | 38.17374 | 36232 ft | 447 kts | 245° |
| 2026-05-07 14:53 | 40.30754 | 38.10169 | 36234 ft | 447 kts | 243° |
| 2026-05-07 14:54 | 40.27750 | 38.03081 | 36235 ft | 447 kts | 243° |
| 2026-05-07 14:54 | 40.24706 | 37.95913 | 36239 ft | 447 kts | 244° |
| 2026-05-07 14:55 | 40.21695 | 37.88829 | 36238 ft | 447 kts | 244° |
| 2026-05-07 14:55 | 40.18671 | 37.81727 | 36247 ft | 446 kts | 244° |
| 2026-05-07 14:56 | 40.15657 | 37.74667 | 36235 ft | 446 kts | 244° |
| 2026-05-07 14:56 | 40.12599 | 37.67522 | 36233 ft | 447 kts | 244° |
| 2026-05-07 14:57 | 40.09579 | 37.60484 | 36235 ft | 447 kts | 244° |
| 2026-05-07 14:57 | 40.06526 | 37.53348 | 36222 ft | 447 kts | 244° |
| 2026-05-07 14:58 | 40.03498 | 37.46239 | 36226 ft | 447 kts | 244° |
| 2026-05-07 14:58 | 40.00478 | 37.39180 | 36230 ft | 447 kts | 244° |
| 2026-05-07 14:59 | 39.97433 | 37.32077 | 36228 ft | 447 kts | 244° |
| 2026-05-07 14:59 | 39.94410 | 37.25034 | 36227 ft | 447 kts | 244° |
| 2026-05-07 15:00 | 39.91364 | 37.17968 | 36231 ft | 447 kts | 244° |
| 2026-05-07 15:00 | 39.88282 | 37.10873 | 36233 ft | 447 kts | 244° |
| 2026-05-07 15:01 | 39.85222 | 37.03869 | 36235 ft | 447 kts | 244° |
| 2026-05-07 15:01 | 39.82259 | 36.96699 | 36228 ft | 445 kts | 249° |
| 2026-05-07 15:02 | 39.80155 | 36.89204 | 36230 ft | 441 kts | 258° |
| 2026-05-07 15:02 | 39.79028 | 36.81448 | 36245 ft | 435 kts | 268° |
| 2026-05-07 15:03 | 39.78785 | 36.73620 | 36247 ft | 432 kts | 273° |
| 2026-05-07 15:03 | 39.78739 | 36.65838 | 36247 ft | 431 kts | 273° |
| 2026-05-07 15:04 | 39.78685 | 36.58100 | 36240 ft | 431 kts | 273° |
| 2026-05-07 15:04 | 39.78618 | 36.50333 | 36245 ft | 430 kts | 273° |
| 2026-05-07 15:05 | 39.78545 | 36.42584 | 36234 ft | 431 kts | 273° |
| 2026-05-07 15:05 | 39.78464 | 36.34806 | 36241 ft | 431 kts | 272° |
| 2026-05-07 15:06 | 39.78375 | 36.26994 | 36234 ft | 430 kts | 272° |
| 2026-05-07 15:06 | 39.77959 | 36.19249 | 36239 ft | 432 kts | 268° |
| 2026-05-07 15:07 | 39.77365 | 36.11512 | 36231 ft | 432 kts | 268° |
| 2026-05-07 15:07 | 39.76762 | 36.03760 | 36230 ft | 432 kts | 268° |
| 2026-05-07 15:08 | 39.76149 | 35.95924 | 36256 ft | 437 kts | 269° |
| 2026-05-07 15:08 | 39.75533 | 35.88130 | 36444 ft | 437 kts | 269° |
| 2026-05-07 15:09 | 39.75220 | 35.84201 | 36549 ft | 436 kts | 269° |
| 2026-05-07 15:09 | 39.74907 | 35.80285 | 36651 ft | 436 kts | 269° |
| 2026-05-07 15:09 | 39.74593 | 35.76366 | 36753 ft | 436 kts | 268° |
| 2026-05-07 15:09 | 39.74281 | 35.72487 | 36843 ft | 436 kts | 268° |
| 2026-05-07 15:10 | 39.73643 | 35.64640 | 37031 ft | 435 kts | 268° |
| 2026-05-07 15:10 | 39.73001 | 35.56823 | 37033 ft | 434 kts | 268° |
| 2026-05-07 15:11 | 39.72358 | 35.48999 | 37193 ft | 435 kts | 268° |
| 2026-05-07 15:11 | 39.71708 | 35.41184 | 37335 ft | 435 kts | 268° |
| 2026-05-07 15:12 | 39.71051 | 35.33355 | 37455 ft | 437 kts | 268° |
| 2026-05-07 15:12 | 39.70385 | 35.25498 | 37602 ft | 437 kts | 267° |
| 2026-05-07 15:13 | 39.69718 | 35.17706 | 37780 ft | 436 kts | 267° |
| 2026-05-07 15:13 | 39.69040 | 35.09851 | 37891 ft | 437 kts | 267° |
| 2026-05-07 15:14 | 39.68360 | 35.02044 | 38006 ft | 437 kts | 268° |
| 2026-05-07 15:14 | 39.67672 | 34.94197 | 38095 ft | 438 kts | 268° |
| 2026-05-07 15:15 | 39.66980 | 34.86362 | 38169 ft | 438 kts | 268° |
| 2026-05-07 15:15 | 39.66276 | 34.78470 | 38202 ft | 439 kts | 268° |
| 2026-05-07 15:16 | 39.65573 | 34.70640 | 38208 ft | 440 kts | 268° |
| 2026-05-07 15:16 | 39.64856 | 34.62724 | 38212 ft | 440 kts | 268° |
| 2026-05-07 15:17 | 39.64135 | 34.54844 | 38204 ft | 440 kts | 268° |
| 2026-05-07 15:17 | 39.63406 | 34.46941 | 38200 ft | 439 kts | 268° |
| 2026-05-07 15:18 | 39.62682 | 34.39118 | 38208 ft | 439 kts | 268° |
| 2026-05-07 15:18 | 39.61959 | 34.31300 | 38206 ft | 439 kts | 267° |
| 2026-05-07 15:19 | 39.61221 | 34.23414 | 38198 ft | 439 kts | 267° |
| 2026-05-07 15:19 | 39.60482 | 34.15588 | 38196 ft | 439 kts | 267° |
| 2026-05-07 15:20 | 39.59850 | 34.08969 | 38196 ft | 438 kts | 267° |
| 2026-05-07 15:20 | 39.58971 | 33.99817 | 38191 ft | 439 kts | 267° |
| 2026-05-07 15:21 | 39.57243 | 33.92208 | 38206 ft | 448 kts | 249° |
| 2026-05-07 15:21 | 39.53836 | 33.85366 | 38209 ft | 457 kts | 238° |
| 2026-05-07 15:22 | 39.49946 | 33.78858 | 38202 ft | 457 kts | 237° |
| 2026-05-07 15:22 | 39.46054 | 33.72367 | 38208 ft | 457 kts | 238° |
| 2026-05-07 15:23 | 39.42165 | 33.65857 | 38209 ft | 457 kts | 238° |
| 2026-05-07 15:23 | 39.38294 | 33.59373 | 38204 ft | 457 kts | 238° |
| 2026-05-07 15:24 | 39.34421 | 33.52898 | 38199 ft | 456 kts | 238° |
| 2026-05-07 15:24 | 39.30521 | 33.46389 | 38204 ft | 456 kts | 238° |
| 2026-05-07 15:25 | 39.26598 | 33.39854 | 38200 ft | 456 kts | 238° |
| 2026-05-07 15:25 | 39.22723 | 33.33409 | 38215 ft | 455 kts | 237° |
| 2026-05-07 15:26 | 39.18848 | 33.26954 | 38206 ft | 455 kts | 237° |
| 2026-05-07 15:26 | 39.14970 | 33.20519 | 38215 ft | 455 kts | 237° |
| 2026-05-07 15:27 | 39.11082 | 33.14090 | 38199 ft | 455 kts | 237° |
| 2026-05-07 15:27 | 39.07185 | 33.07662 | 38215 ft | 455 kts | 237° |
| 2026-05-07 15:28 | 39.03284 | 33.01239 | 38193 ft | 455 kts | 237° |
| 2026-05-07 15:28 | 38.99392 | 32.94846 | 38221 ft | 455 kts | 237° |
| 2026-05-07 15:29 | 38.95444 | 32.88377 | 38221 ft | 454 kts | 237° |
| 2026-05-07 15:29 | 38.91558 | 32.82019 | 38216 ft | 453 kts | 237° |
| 2026-05-07 15:30 | 38.87615 | 32.75605 | 38216 ft | 453 kts | 237° |
| 2026-05-07 15:30 | 38.83714 | 32.69294 | 38216 ft | 452 kts | 237° |
| 2026-05-07 15:31 | 38.79773 | 32.62905 | 38219 ft | 452 kts | 237° |
| 2026-05-07 15:31 | 38.75859 | 32.56560 | 38225 ft | 452 kts | 237° |
| 2026-05-07 15:32 | 38.71982 | 32.50281 | 38219 ft | 451 kts | 237° |
| 2026-05-07 15:32 | 38.68077 | 32.43969 | 38227 ft | 451 kts | 237° |
| 2026-05-07 15:33 | 38.64175 | 32.37676 | 38229 ft | 451 kts | 238° |
| 2026-05-07 15:33 | 38.60272 | 32.31378 | 38222 ft | 450 kts | 237° |
| 2026-05-07 15:34 | 38.56372 | 32.25085 | 38225 ft | 450 kts | 237° |
| 2026-05-07 15:34 | 38.52469 | 32.18816 | 38236 ft | 450 kts | 237° |
| 2026-05-07 15:35 | 38.48588 | 32.12599 | 38239 ft | 450 kts | 237° |
| 2026-05-07 15:35 | 38.44691 | 32.06374 | 38256 ft | 450 kts | 237° |
| 2026-05-07 15:36 | 38.40775 | 32.00130 | 38251 ft | 449 kts | 237° |
| 2026-05-07 15:36 | 38.36872 | 31.93916 | 38257 ft | 449 kts | 237° |
| 2026-05-07 15:37 | 38.32916 | 31.87632 | 38271 ft | 448 kts | 237° |
| 2026-05-07 15:37 | 38.28995 | 31.81421 | 38251 ft | 449 kts | 237° |
| 2026-05-07 15:38 | 38.25055 | 31.75189 | 38258 ft | 448 kts | 237° |
| 2026-05-07 15:38 | 38.21166 | 31.69050 | 38280 ft | 449 kts | 237° |
| 2026-05-07 15:39 | 38.17200 | 31.62864 | 38276 ft | 451 kts | 233° |
| 2026-05-07 15:39 | 38.12338 | 31.57731 | 38278 ft | 462 kts | 217° |
| 2026-05-07 15:40 | 38.06417 | 31.54444 | 38263 ft | 472 kts | 200° |
| 2026-05-07 15:40 | 37.99856 | 31.53279 | 38278 ft | 480 kts | 187° |
| 2026-05-07 15:41 | 37.93031 | 31.52925 | 38266 ft | 482 kts | 186° |
| 2026-05-07 15:41 | 37.86356 | 31.52553 | 38284 ft | 481 kts | 187° |
| 2026-05-07 15:42 | 37.79620 | 31.52128 | 38269 ft | 482 kts | 187° |
| 2026-05-07 15:42 | 37.72952 | 31.51378 | 38264 ft | 480 kts | 191° |
| 2026-05-07 15:43 | 37.66330 | 31.50440 | 38265 ft | 480 kts | 191° |
| 2026-05-07 15:43 | 37.59669 | 31.49502 | 38263 ft | 479 kts | 191° |
| 2026-05-07 15:44 | 37.53080 | 31.48581 | 38251 ft | 479 kts | 191° |
| 2026-05-07 15:44 | 37.46419 | 31.47650 | 38260 ft | 479 kts | 191° |
| 2026-05-07 15:45 | 37.39795 | 31.46727 | 38263 ft | 479 kts | 191° |
| 2026-05-07 15:45 | 37.33174 | 31.45805 | 38263 ft | 478 kts | 191° |
| 2026-05-07 15:46 | 37.23127 | 31.44405 | 37758 ft | 475 kts | 193° |
| 2026-05-07 15:46 | 37.19974 | 31.43429 | 36865 ft | 468 kts | 208° |
| 2026-05-07 15:47 | 37.17169 | 31.41443 | 35974 ft | 458 kts | 225° |
| 2026-05-07 15:47 | 37.14979 | 31.38683 | 35607 ft | 436 kts | 240° |
| 2026-05-07 15:47 | 37.13460 | 31.35507 | 35292 ft | 416 kts | 253° |
| 2026-05-07 15:47 | 37.12618 | 31.32119 | 34973 ft | 398 kts | 266° |
| 2026-05-07 15:48 | 37.12414 | 31.28763 | 34659 ft | 382 kts | 278° |
| 2026-05-07 15:48 | 37.12771 | 31.25536 | 34320 ft | 368 kts | 289° |
| 2026-05-07 15:48 | 37.13616 | 31.22582 | 33910 ft | 357 kts | 300° |
| 2026-05-07 15:48 | 37.14880 | 31.19959 | 33447 ft | 350 kts | 309° |
| 2026-05-07 15:49 | 37.16551 | 31.17670 | 32890 ft | 346 kts | 319° |
| 2026-05-07 15:49 | 37.18492 | 31.15890 | 32363 ft | 344 kts | 329° |
| 2026-05-07 15:49 | 37.19895 | 31.14995 | 32032 ft | 343 kts | 335° |
| 2026-05-07 15:49 | 37.22940 | 31.13899 | 31345 ft | 344 kts | 348° |
| 2026-05-07 15:50 | 37.25371 | 31.13735 | 30739 ft | 349 kts | 359° |
| 2026-05-07 15:50 | 37.27807 | 31.14187 | 30193 ft | 353 kts | 9° |
| 2026-05-07 15:50 | 37.30168 | 31.15266 | 29711 ft | 358 kts | 20° |
| 2026-05-07 15:50 | 37.32315 | 31.16928 | 29231 ft | 363 kts | 32° |
| 2026-05-07 15:51 | 37.34187 | 31.19165 | 28776 ft | 368 kts | 42° |
| 2026-05-07 15:51 | 37.35858 | 31.21604 | 28340 ft | 363 kts | 39° |
| 2026-05-07 15:51 | 37.37781 | 31.23655 | 27940 ft | 349 kts | 27° |
| 2026-05-07 15:51 | 37.39881 | 31.25096 | 27562 ft | 337 kts | 16° |
| 2026-05-07 15:52 | 37.42106 | 31.25978 | 27177 ft | 326 kts | 6° |
| 2026-05-07 15:52 | 37.44357 | 31.26418 | 26733 ft | 322 kts | 2° |
| 2026-05-07 15:52 | 37.46550 | 31.26720 | 26322 ft | 319 kts | 1° |
| 2026-05-07 15:52 | 37.48782 | 31.26816 | 25784 ft | 314 kts | 347° |
| 2026-05-07 15:53 | 37.50773 | 31.25863 | 25307 ft | 309 kts | 326° |
| 2026-05-07 15:53 | 37.52317 | 31.23998 | 24828 ft | 310 kts | 306° |
| 2026-05-07 15:53 | 37.53180 | 31.21466 | 24358 ft | 317 kts | 285° |
| 2026-05-07 15:53 | 37.53096 | 31.18688 | 23893 ft | 331 kts | 258° |
| 2026-05-07 15:54 | 37.51869 | 31.16085 | 23408 ft | 348 kts | 230° |
| 2026-05-07 15:54 | 37.49712 | 31.14420 | 22973 ft | 361 kts | 200° |
| 2026-05-07 15:54 | 37.47208 | 31.13856 | 22612 ft | 363 kts | 189° |
| 2026-05-07 15:54 | 37.44673 | 31.13606 | 22237 ft | 361 kts | 187° |
| 2026-05-07 15:55 | 37.42144 | 31.13364 | 21864 ft | 358 kts | 188° |
| 2026-05-07 15:55 | 37.39682 | 31.13077 | 21492 ft | 355 kts | 189° |
| 2026-05-07 15:55 | 37.37221 | 31.12754 | 21133 ft | 351 kts | 189° |
| 2026-05-07 15:55 | 37.34794 | 31.12419 | 20773 ft | 348 kts | 189° |
| 2026-05-07 15:56 | 37.32289 | 31.12064 | 20391 ft | 346 kts | 189° |
| 2026-05-07 15:56 | 37.29895 | 31.11726 | 20025 ft | 343 kts | 189° |
| 2026-05-07 15:56 | 37.27477 | 31.11387 | 19659 ft | 340 kts | 189° |
| 2026-05-07 15:56 | 37.25127 | 31.11058 | 19300 ft | 337 kts | 189° |
| 2026-05-07 15:57 | 37.22767 | 31.10729 | 18933 ft | 335 kts | 189° |
| 2026-05-07 15:57 | 37.20437 | 31.10411 | 18585 ft | 332 kts | 189° |
| 2026-05-07 15:57 | 37.18154 | 31.10098 | 18230 ft | 329 kts | 191° |
| 2026-05-07 15:57 | 37.15976 | 31.09296 | 17778 ft | 319 kts | 217° |
| 2026-05-07 15:58 | 37.14461 | 31.07382 | 17401 ft | 299 kts | 248° |
| 2026-05-07 15:58 | 37.14011 | 31.04940 | 17042 ft | 280 kts | 279° |
| 2026-05-07 15:58 | 37.14346 | 31.02581 | 16757 ft | 272 kts | 287° |
| 2026-05-07 15:58 | 37.14880 | 31.00326 | 16369 ft | 267 kts | 302° |
| 2026-05-07 15:59 | 37.16050 | 30.98583 | 16008 ft | 260 kts | 326° |
| 2026-05-07 15:59 | 37.17699 | 30.97658 | 15636 ft | 258 kts | 349° |
| 2026-05-07 15:59 | 37.19550 | 30.97681 | 15305 ft | 259 kts | 4° |
| 2026-05-07 15:59 | 37.21394 | 30.97960 | 14982 ft | 262 kts | 4° |
| 2026-05-07 16:00 | 37.23267 | 30.98224 | 14635 ft | 261 kts | 4° |
| 2026-05-07 16:00 | 37.25069 | 30.98476 | 14316 ft | 260 kts | 4° |
| 2026-05-07 16:00 | 37.26875 | 30.98730 | 13985 ft | 259 kts | 4° |
| 2026-05-07 16:00 | 37.28683 | 30.98985 | 13680 ft | 259 kts | 4° |
| 2026-05-07 16:01 | 37.30492 | 30.99241 | 13393 ft | 259 kts | 5° |
| 2026-05-07 16:01 | 37.32278 | 30.99493 | 13087 ft | 258 kts | 5° |
| 2026-05-07 16:01 | 37.34132 | 30.99756 | 12718 ft | 257 kts | 5° |
| 2026-05-07 16:01 | 37.35986 | 31.00018 | 12385 ft | 255 kts | 5° |
| 2026-05-07 16:02 | 37.37745 | 31.00266 | 12048 ft | 253 kts | 5° |
| 2026-05-07 16:02 | 37.39503 | 31.00513 | 11724 ft | 250 kts | 5° |
| 2026-05-07 16:02 | 37.41209 | 31.00593 | 11368 ft | 248 kts | 348° |
| 2026-05-07 16:02 | 37.42768 | 30.99633 | 11020 ft | 247 kts | 318° |
| 2026-05-07 16:03 | 37.43713 | 30.97835 | 10676 ft | 249 kts | 289° |
| 2026-05-07 16:03 | 37.43995 | 30.95650 | 10382 ft | 248 kts | 277° |
| 2026-05-07 16:03 | 37.43760 | 30.93472 | 9949 ft | 255 kts | 246° |
| 2026-05-07 16:03 | 37.42611 | 30.91725 | 9569 ft | 259 kts | 213° |
| 2026-05-07 16:04 | 37.40911 | 30.90827 | 9230 ft | 258 kts | 198° |
| 2026-05-07 16:04 | 37.39201 | 30.90156 | 8891 ft | 257 kts | 198° |
| 2026-05-07 16:04 | 37.37481 | 30.89469 | 8535 ft | 256 kts | 199° |
| 2026-05-07 16:04 | 37.35775 | 30.88765 | 8154 ft | 257 kts | 199° |
| 2026-05-07 16:05 | 37.34050 | 30.88037 | 7769 ft | 258 kts | 200° |
| 2026-05-07 16:05 | 37.32349 | 30.87312 | 7394 ft | 259 kts | 200° |
| 2026-05-07 16:05 | 37.30584 | 30.86614 | 7043 ft | 258 kts | 195° |
| 2026-05-07 16:05 | 37.28789 | 30.86105 | 6733 ft | 256 kts | 192° |
| 2026-05-07 16:06 | 37.27054 | 30.85658 | 6419 ft | 253 kts | 192° |
| 2026-05-07 16:06 | 37.25265 | 30.85201 | 6115 ft | 251 kts | 192° |
| 2026-05-07 16:06 | 37.23558 | 30.84762 | 5808 ft | 248 kts | 192° |
| 2026-05-07 16:06 | 37.21899 | 30.84132 | 5525 ft | 244 kts | 199° |
| 2026-05-07 16:07 | 37.20295 | 30.83546 | 5353 ft | 234 kts | 193° |
| 2026-05-07 16:07 | 37.18693 | 30.83193 | 5138 ft | 223 kts | 188° |
| 2026-05-07 16:07 | 37.17145 | 30.82956 | 4783 ft | 221 kts | 186° |
| 2026-05-07 16:07 | 37.15590 | 30.82747 | 4528 ft | 210 kts | 186° |
| 2026-05-07 16:08 | 37.14125 | 30.82555 | 4398 ft | 193 kts | 186° |
| 2026-05-07 16:08 | 37.12821 | 30.82383 | 4232 ft | 179 kts | 186° |
| 2026-05-07 16:08 | 37.11589 | 30.82219 | 3982 ft | 172 kts | 186° |
| 2026-05-07 16:08 | 37.10387 | 30.82056 | 3753 ft | 170 kts | 186° |
| 2026-05-07 16:09 | 37.09175 | 30.81891 | 3518 ft | 166 kts | 186° |
| 2026-05-07 16:09 | 37.08021 | 30.81733 | 3295 ft | 163 kts | 186° |
| 2026-05-07 16:09 | 37.06894 | 30.81579 | 3085 ft | 162 kts | 186° |
| 2026-05-07 16:09 | 37.05773 | 30.81425 | 2875 ft | 160 kts | 186° |
| 2026-05-07 16:10 | 37.04659 | 30.81272 | 2668 ft | 159 kts | 185° |
| 2026-05-07 16:10 | 37.03543 | 30.81118 | 2458 ft | 158 kts | 185° |
| 2026-05-07 16:10 | 37.02434 | 30.80966 | 2249 ft | 157 kts | 185° |
| 2026-05-07 16:10 | 37.01353 | 30.80818 | 2047 ft | 156 kts | 185° |
| 2026-05-07 16:11 | 37.00277 | 30.80669 | 1846 ft | 155 kts | 184° |
| 2026-05-07 16:11 | 36.99203 | 30.80522 | 1644 ft | 154 kts | 184° |
| 2026-05-07 16:11 | 36.98122 | 30.80374 | 1442 ft | 153 kts | 184° |
| 2026-05-07 16:11 | 36.97052 | 30.80226 | 1241 ft | 153 kts | 184° |
| 2026-05-07 16:12 | 36.96009 | 30.80084 | 1048 ft | 152 kts | 184° |
| 2026-05-07 16:12 | 36.94942 | 30.79937 | 847 ft | 151 kts | 184° |
| 2026-05-07 16:12 | 36.93900 | 30.79794 | 652 ft | 151 kts | 184° |
| 2026-05-07 16:12 | 36.92845 | 30.79650 | 452 ft | 150 kts | 183° |
| 2026-05-07 16:13 | 36.91799 | 30.79516 | 233 ft | 149 kts | 184° |
| 2026-05-07 16:13 | 36.90787 | 30.79380 | 174 ft | 132 kts | 187° |
| 2026-05-07 16:13 | 36.90039 | 30.79272 | 177 ft | 83 kts | 186° |
| 2026-05-07 16:13 | 36.89667 | 30.79221 | 177 ft | 24 kts | 184° |
| 2026-05-07 16:14 | 36.89511 | 30.79277 | 176 ft | 22 kts | 156° |
| 2026-05-07 16:14 | 36.89420 | 30.79329 | 176 ft | 0 kts | 155° |
| 2026-05-07 16:16 | 36.89419 | 30.79330 | 176 ft | 0 kts | 155° |
| 2026-05-07 16:16 | 36.89400 | 30.79341 | 176 ft | 16 kts | 155° |
| 2026-05-07 16:16 | 36.89335 | 30.79380 | 176 ft | 9 kts | 154° |
| 2026-05-07 16:16 | 36.89302 | 30.79427 | 176 ft | 7 kts | 100° |
| 2026-05-07 16:17 | 36.89303 | 30.79457 | 176 ft | 2 kts | 72° |
| 2026-05-07 16:17 | 36.89306 | 30.79503 | 176 ft | 7 kts | 91° |
| 2026-05-07 16:17 | 36.89304 | 30.79576 | 176 ft | 8 kts | 57° |
| 2026-05-07 16:17 | 36.89309 | 30.79561 | 176 ft | 7 kts | 200° |
| 2026-05-07 16:18 | 36.89302 | 30.79548 | 176 ft | 3 kts | 267° |
| 2026-05-07 16:18 | 36.89306 | 30.79496 | 176 ft | 8 kts | 275° |
| 2026-05-07 16:18 | 36.89320 | 30.79408 | 176 ft | 12 kts | 309° |
| 2026-05-07 16:18 | 36.89414 | 30.79399 | 176 ft | 15 kts | 8° |
| 2026-05-07 16:19 | 36.89534 | 30.79415 | 176 ft | 18 kts | 6° |
| 2026-05-07 16:19 | 36.89650 | 30.79433 | 176 ft | 13 kts | 15° |
| 2026-05-07 16:19 | 36.89664 | 30.79539 | 176 ft | 15 kts | 95° |
| 2026-05-07 16:19 | 36.89652 | 30.79682 | 176 ft | 17 kts | 97° |
| 2026-05-07 16:20 | 36.89635 | 30.79841 | 176 ft | 17 kts | 95° |
| 2026-05-07 16:20 | 36.89722 | 30.79900 | 176 ft | 16 kts | 8° |
| 2026-05-07 16:20 | 36.89789 | 30.79933 | 177 ft | 2 kts | 108° |
| 2026-05-07 16:20 | 36.89788 | 30.79959 | 176 ft | 4 kts | 80° |
| 2026-05-07 16:21 | 36.89791 | 30.79990 | 176 ft | 0 kts | 90° |
| 2026-05-07 16:21 | 36.89791 | 30.79991 | 176 ft | 0 kts | 90° |